createdAt,value
2023-02-09T00:01:00.978Z,96544.91
2023-02-09T00:03:27.596Z,96543.22
2023-02-09T00:05:54.181Z,96539.31
2023-02-09T00:08:20.585Z,96538.16
2023-02-09T00:10:47.553Z,96546.00
2023-02-09T00:13:23.669Z,96538.06
2023-02-09T00:15:51.233Z,96560.47
2023-02-09T00:18:18.004Z,96545.53
2023-02-09T00:20:44.971Z,96562.47
2023-02-09T00:23:11.607Z,96571.56
2023-02-09T00:25:39.024Z,96556.88
2023-02-09T00:28:06.007Z,96562.38
2023-02-09T00:30:33.118Z,96567.78
2023-02-09T00:32:59.472Z,96567.91
2023-02-09T00:35:25.885Z,96555.09
2023-02-09T00:37:53.652Z,96549.25
2023-02-09T00:40:20.224Z,96555.44
2023-02-09T00:42:46.612Z,96546.50
2023-02-09T00:45:16.343Z,96542.59
2023-02-09T00:47:43.424Z,96546.13
2023-02-09T00:50:09.816Z,96544.06
2023-02-09T00:52:36.321Z,96538.13
2023-02-09T00:55:03.331Z,96545.63
2023-02-09T00:57:29.748Z,96543.69
2023-02-09T00:59:56.433Z,96539.31
2023-02-09T01:02:22.814Z,96533.84
2023-02-09T01:04:49.941Z,96540.50
2023-02-09T01:07:16.470Z,96538.75
2023-02-09T01:09:42.892Z,96536.84
2023-02-09T01:12:09.312Z,96542.72
2023-02-09T01:14:38.408Z,96522.34
2023-02-09T01:17:05.022Z,96538.53
2023-02-09T01:19:31.992Z,96535.16
2023-02-09T01:21:59.243Z,96543.75
2023-02-09T01:24:25.757Z,96535.31
2023-02-09T01:26:52.337Z,96545.44
2023-02-09T01:29:20.175Z,96535.13
2023-02-09T01:31:48.277Z,96536.94
2023-02-09T01:34:18.242Z,96535.56
2023-02-09T01:36:47.672Z,96536.72
2023-02-09T01:39:14.889Z,96533.06
2023-02-09T01:41:41.734Z,96533.38
2023-02-09T01:44:42.872Z,96530.28
2023-02-09T01:47:13.281Z,96538.25
2023-02-09T01:49:39.809Z,96528.59
2023-02-09T01:52:10.264Z,96531.78
2023-02-09T01:54:44.291Z,96534.84
2023-02-09T01:57:13.189Z,96525.50
2023-02-09T01:59:42.850Z,96532.56
2023-02-09T02:02:10.534Z,96527.78
2023-02-09T02:04:38.683Z,96524.56
2023-02-09T02:07:09.893Z,96506.22
2023-02-09T02:09:36.805Z,96517.44
2023-02-09T02:12:05.151Z,96516.97
2023-02-09T02:14:33.895Z,96515.72
2023-02-09T02:17:15.286Z,96515.44
2023-02-09T02:20:16.034Z,96517.84
2023-02-09T02:22:55.495Z,96517.56
2023-02-09T02:25:54.192Z,96516.63
2023-02-09T02:28:43.279Z,96519.53
2023-02-09T02:31:59.187Z,96523.34
2023-02-09T02:34:34.598Z,96509.91
2023-02-09T02:37:13.487Z,96507.88
2023-02-09T02:39:50.358Z,96514.81
2023-02-09T02:42:42.267Z,96505.75
2023-02-09T02:45:13.058Z,96508.75
2023-02-09T02:47:47.093Z,96512.78
2023-02-09T02:50:15.824Z,96514.56
2023-02-09T02:52:46.626Z,96509.16
2023-02-09T02:55:16.413Z,96510.88
2023-02-09T02:57:46.974Z,96512.72
2023-02-09T03:00:18.664Z,96514.34
2023-02-09T03:02:49.780Z,96516.63
2023-02-09T03:05:17.305Z,96515.25
2023-02-09T03:07:44.165Z,96526.50
2023-02-09T03:10:26.261Z,96511.41
2023-02-09T03:13:07.168Z,96508.41
2023-02-09T03:15:44.176Z,96516.03
2023-02-09T03:18:16.565Z,96525.19
2023-02-09T03:20:50.643Z,96506.97
2023-02-09T03:23:26.973Z,96506.31
2023-02-09T03:25:56.517Z,96503.81
2023-02-09T03:28:28.666Z,96503.81
2023-02-09T03:30:57.207Z,96504.44
2023-02-09T03:33:27.377Z,96514.56
2023-02-09T03:35:58.316Z,96512.97
2023-02-09T03:38:25.544Z,96502.31
2023-02-09T03:40:52.005Z,96508.59
2023-02-09T03:43:18.384Z,96507.03
2023-02-09T03:45:44.796Z,96504.44
2023-02-09T03:48:11.325Z,96509.97
2023-02-09T03:50:38.491Z,96508.28
2023-02-09T03:53:05.771Z,96516.19
2023-02-09T03:55:32.210Z,96504.16
2023-02-09T03:57:58.572Z,96501.50
2023-02-09T04:00:25.113Z,96498.63
2023-02-09T04:02:51.660Z,96510.31
2023-02-09T04:05:18.292Z,96517.25
2023-02-09T04:07:45.554Z,96516.53
2023-02-09T04:10:11.934Z,96521.03
2023-02-09T04:12:38.342Z,96518.53
2023-02-09T04:15:05.324Z,96516.25
2023-02-09T04:17:31.736Z,96511.69
2023-02-09T04:19:58.169Z,96497.91
2023-02-09T04:22:24.574Z,96512.78
2023-02-09T04:24:51.601Z,96515.34
2023-02-09T04:27:18.007Z,96520.00
2023-02-09T04:29:44.394Z,96521.38
2023-02-09T04:32:10.876Z,96520.00
2023-02-09T04:34:37.306Z,96518.88
2023-02-09T04:37:03.705Z,96508.97
2023-02-09T04:39:30.216Z,96509.97
2023-02-09T04:41:57.239Z,96521.72
2023-02-09T04:44:23.662Z,96508.00
2023-02-09T04:46:50.045Z,96518.00
2023-02-09T04:49:16.438Z,96514.22
2023-02-09T04:51:42.841Z,96519.91
2023-02-09T04:54:09.289Z,96522.34
2023-02-09T04:56:37.240Z,96516.34
2023-02-09T04:59:31.592Z,96515.09
2023-02-09T05:01:58.057Z,96518.59
2023-02-09T05:04:24.455Z,96523.84
2023-02-09T05:06:50.876Z,96528.84
2023-02-09T05:09:17.314Z,96532.41
2023-02-09T05:11:43.675Z,96519.16
2023-02-09T05:14:10.683Z,96538.66
2023-02-09T05:16:39.119Z,96536.25
2023-02-09T05:19:05.851Z,96542.56
2023-02-09T05:21:32.243Z,96538.66
2023-02-09T05:23:58.679Z,96540.03
2023-02-09T05:26:25.142Z,96531.72
2023-02-09T05:28:51.571Z,96538.13
2023-02-09T05:31:18.687Z,96535.09
2023-02-09T05:33:45.152Z,96543.84
2023-02-09T05:36:12.102Z,96547.59
2023-02-09T05:38:39.379Z,96557.56
2023-02-09T05:41:06.548Z,96551.47
2023-02-09T05:43:33.015Z,96561.53
2023-02-09T05:45:59.520Z,96555.31
2023-02-09T05:48:26.669Z,96548.97
2023-02-09T05:50:53.127Z,96546.25
2023-02-09T05:53:19.649Z,96548.75
2023-02-09T05:55:46.861Z,96546.31
2023-02-09T05:58:13.723Z,96553.47
2023-02-09T06:00:40.133Z,96539.63
2023-02-09T06:03:06.607Z,96545.06
2023-02-09T06:05:33.723Z,96550.09
2023-02-09T06:08:00.134Z,96555.50
2023-02-09T06:10:26.510Z,96550.75
2023-02-09T06:12:52.948Z,96552.97
2023-02-09T06:15:20.329Z,96552.69
2023-02-09T06:17:46.804Z,96553.56
2023-02-09T06:20:13.203Z,96556.28
2023-02-09T06:22:40.258Z,96564.91
2023-02-09T06:25:07.179Z,96563.69
2023-02-09T06:27:33.616Z,96564.28
2023-02-09T06:30:00.084Z,96564.75
2023-02-09T06:32:26.546Z,96574.94
2023-02-09T06:34:53.030Z,96576.72
2023-02-09T06:37:19.507Z,96571.41
2023-02-09T06:39:46.582Z,96570.41
2023-02-09T06:42:13.139Z,96586.13
2023-02-09T06:44:39.558Z,96563.44
2023-02-09T06:47:05.966Z,96590.38
2023-02-09T06:49:32.401Z,96589.47
2023-02-09T06:52:10.481Z,96580.25
2023-02-09T06:54:37.034Z,96586.97
2023-02-09T06:57:04.200Z,96587.22
2023-02-09T06:59:30.592Z,96590.00
2023-02-09T07:01:57.047Z,96590.13
2023-02-09T07:04:23.535Z,96587.38
2023-02-09T07:06:50.048Z,96593.38
2023-02-09T07:09:19.952Z,96600.16
2023-02-09T07:11:46.351Z,96588.63
2023-02-09T07:14:13.482Z,96591.63
2023-02-09T07:16:40.835Z,96585.78
2023-02-09T07:19:07.514Z,96603.94
2023-02-09T07:21:33.969Z,96604.88
2023-02-09T07:24:00.570Z,96604.91
2023-02-09T07:26:27.084Z,96604.09
2023-02-09T07:28:53.520Z,96602.13
2023-02-09T07:31:20.789Z,96607.69
2023-02-09T07:33:52.315Z,96603.41
2023-02-09T07:36:19.290Z,96609.59
2023-02-09T07:38:45.784Z,96596.97
2023-02-09T07:41:15.783Z,96602.91
2023-02-09T07:43:42.456Z,96593.53
2023-02-09T07:46:09.139Z,96603.09
2023-02-09T07:48:36.688Z,96606.31
2023-02-09T07:51:03.867Z,96599.78
2023-02-09T07:53:32.708Z,96601.19
2023-02-09T07:55:59.195Z,96613.44
2023-02-09T07:58:25.650Z,96610.19
2023-02-09T08:00:52.108Z,96609.00
2023-02-09T08:03:21.986Z,96609.97
2023-02-09T08:05:55.233Z,96602.72
2023-02-09T08:08:21.810Z,96603.00
2023-02-09T08:10:51.850Z,96612.47
2023-02-09T08:13:18.373Z,96610.63
2023-02-09T08:15:49.248Z,96614.81
2023-02-09T08:18:19.506Z,96612.50
2023-02-09T08:20:47.090Z,96609.72
2023-02-09T08:23:18.964Z,96612.19
2023-02-09T08:25:47.290Z,96598.06
2023-02-09T08:28:14.110Z,96604.06
2023-02-09T08:30:40.706Z,96601.00
2023-02-09T08:33:08.853Z,96592.09
2023-02-09T08:35:35.318Z,96589.16
2023-02-09T08:38:03.575Z,96593.81
2023-02-09T08:40:31.274Z,96602.16
2023-02-09T08:42:59.184Z,96598.97
2023-02-09T08:45:25.786Z,96598.09
2023-02-09T08:47:52.287Z,96598.44
2023-02-09T08:50:18.730Z,96604.44
2023-02-09T08:52:45.276Z,96596.53
2023-02-09T08:55:11.793Z,96599.31
2023-02-09T08:57:44.351Z,96608.59
2023-02-09T09:00:12.494Z,96605.09
2023-02-09T09:02:38.938Z,96603.09
2023-02-09T09:05:06.289Z,96601.84
2023-02-09T09:07:32.875Z,96609.50
2023-02-09T09:09:59.297Z,96612.47
2023-02-09T09:12:25.808Z,96609.88
2023-02-09T09:14:52.892Z,96602.56
2023-02-09T09:17:19.361Z,96596.72
2023-02-09T09:19:46.030Z,96609.84
2023-02-09T09:22:12.462Z,96590.69
2023-02-09T09:24:40.029Z,96593.31
2023-02-09T09:27:07.471Z,96605.16
2023-02-09T09:29:34.212Z,96598.03
2023-02-09T09:32:01.746Z,96605.22
2023-02-09T09:34:28.650Z,96614.78
2023-02-09T09:36:55.100Z,96603.47
2023-02-09T09:39:21.570Z,96608.56
2023-02-09T09:41:52.146Z,96610.13
2023-02-09T09:44:27.181Z,96610.34
2023-02-09T09:46:54.443Z,96612.16
2023-02-09T09:49:26.086Z,96620.91
2023-02-09T09:51:56.137Z,96623.97
2023-02-09T09:54:26.214Z,96629.44
2023-02-09T09:56:53.691Z,96626.00
2023-02-09T09:59:23.745Z,96623.88
2023-02-09T10:01:52.510Z,96621.00
2023-02-09T10:04:20.202Z,96624.06
2023-02-09T10:06:53.881Z,96620.41
2023-02-09T10:09:31.658Z,96622.66
2023-02-09T10:12:07.306Z,96620.34
2023-02-09T10:14:33.840Z,96630.16
2023-02-09T10:17:02.880Z,96628.56
2023-02-09T10:19:29.644Z,96626.97
2023-02-09T10:21:57.139Z,96635.47
2023-02-09T10:24:25.716Z,96622.66
2023-02-09T10:27:10.017Z,96622.13
2023-02-09T10:29:36.419Z,96617.06
2023-02-09T10:32:07.564Z,96611.69
2023-02-09T10:34:42.470Z,96603.97
2023-02-09T10:37:35.122Z,96599.03
2023-02-09T10:40:14.174Z,96602.84
2023-02-09T10:42:49.363Z,96597.16
2023-02-09T10:45:24.934Z,96598.59
2023-02-09T10:47:58.423Z,96593.91
2023-02-09T10:50:28.626Z,96587.97
2023-02-09T10:52:58.920Z,96575.00
2023-02-09T10:55:29.044Z,96583.56
2023-02-09T10:58:17.338Z,96580.09
2023-02-09T11:00:50.238Z,96587.81
2023-02-09T11:03:20.164Z,96580.03
2023-02-09T11:05:47.732Z,96584.69
2023-02-09T11:08:21.018Z,96585.09
2023-02-09T11:11:01.153Z,96578.75
2023-02-09T11:13:27.793Z,96568.28
2023-02-09T11:16:19.216Z,96567.25
2023-02-09T11:18:51.757Z,96573.94
2023-02-09T11:21:26.427Z,96577.38
2023-02-09T11:24:00.952Z,96581.75
2023-02-09T11:26:37.935Z,96574.16
2023-02-09T11:29:13.022Z,96562.03
2023-02-09T11:31:49.670Z,96568.88
2023-02-09T11:34:38.349Z,96562.06
2023-02-09T11:37:18.983Z,96559.88
2023-02-09T11:39:55.570Z,96565.50
2023-02-09T11:42:41.016Z,96563.63
2023-02-09T11:45:12.906Z,96559.88
2023-02-09T11:47:51.364Z,96555.28
2023-02-09T11:50:26.271Z,96553.72
2023-02-09T11:52:55.886Z,96557.78
2023-02-09T11:55:28.532Z,96550.88
2023-02-09T11:58:05.870Z,96546.25
2023-02-09T12:00:53.171Z,96553.22
2023-02-09T12:03:21.156Z,96539.56
2023-02-09T12:05:48.196Z,96544.44
2023-02-09T12:08:30.026Z,96540.84
2023-02-09T12:11:14.871Z,96528.50
2023-02-09T12:14:03.968Z,96530.34
2023-02-09T12:16:34.618Z,96543.88
2023-02-09T12:19:03.160Z,96539.97
2023-02-09T12:21:31.860Z,96516.94
2023-02-09T12:24:01.647Z,96504.63
2023-02-09T12:26:41.865Z,96526.97
2023-02-09T12:29:33.970Z,96515.91
2023-02-09T12:32:40.781Z,96509.75
2023-02-09T12:35:25.322Z,96511.19
2023-02-09T12:38:14.764Z,96514.72
2023-02-09T12:40:41.220Z,96507.09
2023-02-09T12:43:27.651Z,96510.00
2023-02-09T12:46:20.037Z,96507.47
2023-02-09T12:49:19.169Z,96508.91
2023-02-09T12:52:03.918Z,96509.25
2023-02-09T12:54:39.954Z,96508.97
2023-02-09T12:57:42.939Z,96499.22
2023-02-09T13:00:40.820Z,96506.00
2023-02-09T13:03:12.663Z,96503.06
2023-02-09T13:05:44.353Z,96507.66
2023-02-09T13:08:43.919Z,96496.50
2023-02-09T13:11:21.677Z,96490.13
2023-02-09T13:13:53.039Z,96479.78
2023-02-09T13:16:57.544Z,96499.31
2023-02-09T13:19:56.293Z,96497.88
2023-02-09T13:22:32.776Z,96491.44
2023-02-09T13:25:00.964Z,96516.59
2023-02-09T13:27:28.993Z,96493.47
2023-02-09T13:29:57.714Z,96483.41
2023-02-09T13:32:37.777Z,96493.31
2023-02-09T13:35:15.545Z,96484.16
2023-02-09T13:37:46.244Z,96489.94
2023-02-09T13:40:16.126Z,96483.78
2023-02-09T13:42:53.380Z,96491.56
2023-02-09T13:45:20.030Z,96482.03
2023-02-09T13:47:47.266Z,96490.22
2023-02-09T13:50:16.736Z,96497.00
2023-02-09T13:52:43.511Z,96487.25
2023-02-09T13:55:12.764Z,96499.28
2023-02-09T13:57:42.132Z,96495.69
2023-02-09T14:00:26.982Z,96505.22
2023-02-09T14:02:57.329Z,96508.75
2023-02-09T14:05:39.185Z,96512.22
2023-02-09T14:08:06.436Z,96510.47
2023-02-09T14:10:34.432Z,96507.66
2023-02-09T14:13:04.291Z,96500.03
2023-02-09T14:15:54.408Z,96501.09
2023-02-09T14:18:27.483Z,96499.09
2023-02-09T14:21:22.076Z,96490.56
2023-02-09T14:24:02.300Z,96497.25
2023-02-09T14:26:32.877Z,96490.56
2023-02-09T14:29:11.236Z,96494.78
2023-02-09T14:31:42.512Z,96492.19
2023-02-09T14:34:28.261Z,96502.56
2023-02-09T14:36:56.530Z,96499.88
2023-02-09T14:39:23.722Z,96498.16
2023-02-09T14:42:14.626Z,96502.00
2023-02-09T14:44:46.149Z,96512.44
2023-02-09T14:47:28.225Z,96500.84
2023-02-09T14:49:56.402Z,96503.44
2023-02-09T14:52:28.030Z,96504.69
2023-02-09T14:54:57.021Z,96506.97
2023-02-09T14:57:25.212Z,96504.56
2023-02-09T14:59:51.576Z,96506.19
2023-02-09T15:02:20.466Z,96507.84
2023-02-09T15:04:47.258Z,96508.22
2023-02-09T15:07:18.514Z,96485.44
2023-02-09T15:09:45.764Z,96507.28
2023-02-09T15:12:21.634Z,96505.50
2023-02-09T15:14:49.132Z,96503.88
2023-02-09T15:17:17.685Z,96504.13
2023-02-09T15:19:44.489Z,96511.28
2023-02-09T15:22:14.254Z,96511.53
2023-02-09T15:24:42.378Z,96510.06
2023-02-09T15:27:32.823Z,96518.72
2023-02-09T15:30:02.314Z,96522.88
2023-02-09T15:32:30.198Z,96523.03
2023-02-09T15:34:56.631Z,96523.97
2023-02-09T15:37:25.777Z,96522.53
2023-02-09T15:39:55.950Z,96527.28
2023-02-09T15:42:40.513Z,96537.84
2023-02-09T15:45:36.009Z,96532.19
2023-02-09T15:48:03.168Z,96537.91
2023-02-09T15:50:30.505Z,96535.63
2023-02-09T15:52:57.671Z,96533.56
2023-02-09T15:55:26.524Z,96534.16
2023-02-09T15:57:53.892Z,96540.97
2023-02-09T16:00:26.471Z,96548.34
2023-02-09T16:02:53.333Z,96573.38
2023-02-09T16:05:20.607Z,96559.06
2023-02-09T16:07:48.740Z,96545.38
2023-02-09T16:10:21.611Z,96557.22
2023-02-09T16:12:48.911Z,96563.19
2023-02-09T16:15:16.436Z,96568.56
2023-02-09T16:17:43.046Z,96567.00
2023-02-09T16:20:10.235Z,96562.84
2023-02-09T16:22:38.956Z,96574.06
2023-02-09T16:25:06.024Z,96572.28
2023-02-09T16:27:32.632Z,96573.13
2023-02-09T16:29:59.733Z,96580.97
2023-02-09T16:32:28.016Z,96573.31
2023-02-09T16:34:57.737Z,96592.34
2023-02-09T16:37:30.894Z,96591.38
2023-02-09T16:39:57.607Z,96600.69
2023-02-09T16:42:24.893Z,96593.44
2023-02-09T16:44:52.061Z,96605.06
2023-02-09T16:47:21.614Z,96606.53
2023-02-09T16:49:55.485Z,96611.25
2023-02-09T16:52:25.156Z,96622.09
2023-02-09T16:54:54.767Z,96617.63
2023-02-09T16:57:22.744Z,96615.69
2023-02-09T16:59:49.427Z,96625.69
2023-02-09T17:02:29.157Z,96627.34
2023-02-09T17:04:55.810Z,96641.81
2023-02-09T17:07:24.111Z,96643.81
2023-02-09T17:09:50.506Z,96644.28
2023-02-09T17:12:16.896Z,96644.66
2023-02-09T17:14:43.252Z,96639.94
2023-02-09T17:17:17.178Z,96647.38
2023-02-09T17:19:47.934Z,96653.13
2023-02-09T17:22:15.606Z,96650.72
2023-02-09T17:24:42.169Z,96656.06
2023-02-09T17:27:09.454Z,96659.88
2023-02-09T17:29:35.920Z,96656.72
2023-02-09T17:32:02.875Z,96659.25
2023-02-09T17:34:29.366Z,96659.44
2023-02-09T17:36:57.403Z,96662.22
2023-02-09T17:39:29.927Z,96666.59
2023-02-09T17:41:59.013Z,96669.56
2023-02-09T17:44:45.161Z,96667.03
2023-02-09T17:47:14.994Z,96669.66
2023-02-09T17:49:41.457Z,96669.91
2023-02-09T17:52:16.966Z,96680.47
2023-02-09T17:54:44.669Z,96686.63
2023-02-09T17:57:12.833Z,96680.28
2023-02-09T17:59:39.238Z,96675.50
2023-02-09T18:02:13.620Z,96666.34
2023-02-09T18:04:40.264Z,96693.72
2023-02-09T18:07:06.719Z,96680.69
2023-02-09T18:09:33.925Z,96688.59
2023-02-09T18:12:02.380Z,96679.03
2023-02-09T18:14:30.819Z,96680.03
2023-02-09T18:16:57.331Z,96682.19
2023-02-09T18:19:27.254Z,96690.91
2023-02-09T18:21:58.404Z,96695.41
2023-02-09T18:24:27.537Z,96688.66
2023-02-09T18:26:55.184Z,96691.91
2023-02-09T18:29:25.386Z,96691.81
2023-02-09T18:31:51.813Z,96695.44
2023-02-09T18:34:21.240Z,96689.50
2023-02-09T18:36:47.709Z,96689.41
2023-02-09T18:39:14.309Z,96698.94
2023-02-09T18:41:45.559Z,96689.94
2023-02-09T18:44:12.698Z,96690.09
2023-02-09T18:46:40.951Z,96691.63
2023-02-09T18:49:11.266Z,96687.28
2023-02-09T18:51:37.673Z,96687.50
2023-02-09T18:54:04.835Z,96696.84
2023-02-09T18:56:31.241Z,96702.94
2023-02-09T18:58:57.642Z,96705.06
2023-02-09T19:01:24.738Z,96704.06
2023-02-09T19:03:52.434Z,96697.91
2023-02-09T19:06:19.962Z,96709.94
2023-02-09T19:08:47.703Z,96703.09
2023-02-09T19:11:15.302Z,96710.41
2023-02-09T19:13:41.734Z,96711.47
2023-02-09T19:16:10.267Z,96714.88
2023-02-09T19:18:38.722Z,96716.34
2023-02-09T19:21:06.560Z,96686.59
2023-02-09T19:23:32.989Z,96714.06
2023-02-09T19:26:04.864Z,96718.06
2023-02-09T19:28:31.512Z,96716.22
2023-02-09T19:30:57.952Z,96721.25
2023-02-09T19:33:24.661Z,96723.34
2023-02-09T19:35:57.990Z,96726.59
2023-02-09T19:38:25.252Z,96728.38
2023-02-09T19:41:02.038Z,96726.03
2023-02-09T19:43:35.170Z,96717.84
2023-02-09T19:46:01.632Z,96714.94
2023-02-09T19:48:28.108Z,96717.53
2023-02-09T19:50:55.694Z,96721.94
2023-02-09T19:53:26.433Z,96723.28
2023-02-09T19:55:53.491Z,96725.81
2023-02-09T19:58:20.977Z,96719.16
2023-02-09T20:00:47.838Z,96718.19
2023-02-09T20:03:14.984Z,96720.94
2023-02-09T20:05:42.662Z,96715.66
2023-02-09T20:08:12.595Z,96719.88
2023-02-09T20:10:40.094Z,96717.75
2023-02-09T20:13:07.767Z,96721.97
2023-02-09T20:15:34.207Z,96719.22
2023-02-09T20:18:00.615Z,96719.38
2023-02-09T20:20:27.125Z,96727.09
2023-02-09T20:22:53.811Z,96729.94
2023-02-09T20:25:20.225Z,96677.06
2023-02-09T20:27:48.875Z,96693.69
2023-02-09T20:30:15.967Z,96713.88
2023-02-09T20:32:42.389Z,96734.03
2023-02-09T20:35:11.281Z,96732.09
2023-02-09T20:37:37.688Z,96726.78
2023-02-09T20:40:04.613Z,96732.53
2023-02-09T20:42:49.286Z,96732.97
2023-02-09T20:45:34.897Z,96733.53
2023-02-09T20:48:01.718Z,96740.38
2023-02-09T20:50:31.215Z,96753.88
2023-02-09T20:52:58.146Z,96757.75
2023-02-09T20:55:24.656Z,96761.09
2023-02-09T20:57:51.131Z,96752.22
2023-02-09T21:00:18.688Z,96749.47
2023-02-09T21:02:45.115Z,96748.81
2023-02-09T21:05:11.640Z,96756.34
2023-02-09T21:07:38.108Z,96774.81
2023-02-09T21:10:04.864Z,96767.09
2023-02-09T21:12:31.266Z,96764.75
2023-02-09T21:14:58.416Z,96762.59
2023-02-09T21:17:25.550Z,96757.22
2023-02-09T21:19:52.072Z,96775.09
2023-02-09T21:22:18.536Z,96763.56
2023-02-09T21:24:44.957Z,96765.00
2023-02-09T21:27:12.009Z,96769.78
2023-02-09T21:29:38.502Z,96767.50
2023-02-09T21:32:06.401Z,96770.09
2023-02-09T21:34:33.551Z,96761.75
2023-02-09T21:37:00.017Z,96780.06
2023-02-09T21:39:26.470Z,96777.25
2023-02-09T21:42:11.167Z,96777.09
2023-02-09T21:44:38.150Z,96764.13
2023-02-09T21:47:05.667Z,96781.78
2023-02-09T21:49:34.815Z,96771.13
2023-02-09T21:52:01.275Z,96775.41
2023-02-09T21:54:33.279Z,96772.03
2023-02-09T21:56:59.910Z,96776.09
2023-02-09T21:59:27.003Z,96786.78
2023-02-09T22:01:53.486Z,96789.22
2023-02-09T22:04:20.052Z,96780.16
2023-02-09T22:06:47.694Z,96784.84
2023-02-09T22:09:19.595Z,96791.91
2023-02-09T22:11:46.054Z,96783.03
2023-02-09T22:14:12.438Z,96797.06
2023-02-09T22:16:38.985Z,96787.97
2023-02-09T22:19:05.409Z,96787.44
2023-02-09T22:21:31.849Z,96794.16
2023-02-09T22:23:58.886Z,96787.75
2023-02-09T22:26:25.299Z,96806.50
2023-02-09T22:28:51.709Z,96797.63
2023-02-09T22:31:20.198Z,96793.13
2023-02-09T22:33:46.658Z,96793.22
2023-02-09T22:36:14.618Z,96795.44
2023-02-09T22:38:41.655Z,96802.38
2023-02-09T22:41:20.452Z,96809.69
2023-02-09T22:43:48.090Z,96801.50
2023-02-09T22:46:14.589Z,96812.41
2023-02-09T22:48:41.109Z,96804.38
2023-02-09T22:51:07.523Z,96813.75
2023-02-09T22:53:34.273Z,96820.41
2023-02-09T22:56:01.628Z,96820.69
2023-02-09T22:58:28.678Z,96817.50
2023-02-09T23:00:55.092Z,96810.13
2023-02-09T23:03:21.529Z,96813.66
2023-02-09T23:05:48.137Z,96814.47
2023-02-09T23:08:14.710Z,96805.38
2023-02-09T23:10:41.242Z,96804.69
2023-02-09T23:13:07.739Z,96800.28
2023-02-09T23:15:34.792Z,96794.31
2023-02-09T23:18:01.432Z,96804.66
2023-02-09T23:20:27.798Z,96800.88
2023-02-09T23:22:55.617Z,96755.16
2023-02-09T23:25:23.581Z,96791.06
2023-02-09T23:27:50.151Z,96786.16
2023-02-09T23:30:16.549Z,96795.16
2023-02-09T23:32:43.642Z,96801.44
2023-02-09T23:35:10.052Z,96792.53
2023-02-09T23:37:38.084Z,96805.22
2023-02-09T23:40:05.377Z,96802.38
2023-02-09T23:42:31.850Z,96788.84
2023-02-09T23:44:58.289Z,96801.19
2023-02-09T23:47:24.803Z,96803.66
2023-02-09T23:49:51.897Z,96804.97
2023-02-09T23:52:18.270Z,96801.44
2023-02-09T23:54:44.793Z,96821.25
2023-02-09T23:57:11.195Z,96810.19
2023-02-09T23:59:38.391Z,96820.81
